Time;durP1;ratioP1;P1;durP2;ratioP2;P2;SDS_P1;SDS_P2;PMS_P1;PMS_P2;Temp;Humidity;BMP_temperature;BMP_pressure;BME280_temperature;BME280_humidity;BME280_pressure;Samples;Min_cycle;Max_cycle;Signal;HPM_P1;HPM_P2
2021/08/29 00:01:33;;;;;;;10.97;7.87;;;14.00;99.90;;;;;;4144975;28;20235;-76
2021/08/29 00:03:35;;;;;;;11.63;7.03;;;14.00;99.90;;;;;;4147978;28;20215;-77
2021/08/29 00:05:38;;;;;;;10.83;7.27;;;14.00;99.90;;;;;;4148180;28;20588;-77
2021/08/29 00:07:40;;;;;;;10.10;7.57;;;14.00;99.90;;;;;;4147903;28;20291;-76
2021/08/29 00:09:42;;;;;;;9.50;6.93;;;14.00;99.90;;;;;;4145183;28;20212;-77
2021/08/29 00:11:43;;;;;;;9.87;7.27;;;14.00;99.90;;;;;;4147740;28;20598;-76
2021/08/29 00:13:45;;;;;;;8.90;6.97;;;14.00;99.90;;;;;;4143660;28;20258;-77
2021/08/29 00:15:47;;;;;;;11.40;7.93;;;14.00;99.90;;;;;;4147690;28;20208;-77
2021/08/29 00:17:48;;;;;;;11.90;7.30;;;14.00;99.90;;;;;;4145819;28;20208;-77
2021/08/29 00:19:50;;;;;;;9.30;6.67;;;14.00;99.90;;;;;;4147527;28;20222;-77
2021/08/29 00:21:53;;;;;;;9.83;6.97;;;14.00;99.90;;;;;;4146717;28;20282;-76
2021/08/29 00:23:55;;;;;;;10.47;7.03;;;14.00;99.90;;;;;;4144243;28;20289;-76
2021/08/29 00:25:57;;;;;;;11.03;7.30;;;14.00;99.90;;;;;;4147476;28;20204;-76
2021/08/29 00:27:58;;;;;;;11.13;6.97;;;14.00;99.90;;;;;;4146855;28;20208;-77
2021/08/29 00:30:00;;;;;;;9.70;6.83;;;14.00;99.90;;;;;;4146566;28;20698;-76
2021/08/29 00:32:02;;;;;;;10.77;7.23;;;14.00;99.90;;;;;;4140984;28;20289;-77
2021/08/29 00:34:04;;;;;;;10.47;7.33;;;14.00;99.90;;;;;;4146654;28;20223;-76
2021/08/29 00:36:06;;;;;;;11.37;7.27;;;14.00;99.90;;;;;;4147154;28;20223;-76
2021/08/29 00:38:09;;;;;;;10.07;6.97;;;14.00;99.90;;;;;;4146517;28;20242;-77
2021/08/29 00:40:11;;;;;;;9.50;7.20;;;14.00;99.90;;;;;;4143878;28;20227;-76
2021/08/29 00:42:13;;;;;;;13.30;7.40;;;14.00;99.90;;;;;;4138193;28;20227;-76
2021/08/29 00:44:16;;;;;;;10.60;7.20;;;14.10;99.90;;;;;;4142963;28;20278;-77
2021/08/29 00:46:18;;;;;;;11.20;7.47;;;14.10;99.90;;;;;;4146961;28;20208;-77
2021/08/29 00:48:21;;;;;;;11.90;7.40;;;14.10;99.90;;;;;;4145717;28;20212;-76
2021/08/29 00:50:23;;;;;;;10.80;7.17;;;14.10;99.90;;;;;;4144496;28;20215;-76
2021/08/29 00:52:24;;;;;;;10.90;7.43;;;14.10;99.90;;;;;;4137442;28;20680;-76
2021/08/29 00:54:30;;;;;;;10.50;7.47;;;14.10;99.90;;;;;;4130147;28;20222;-76
2021/08/29 00:56:32;;;;;;;9.47;7.00;;;14.10;99.90;;;;;;4141028;28;20227;-77
2021/08/29 00:58:34;;;;;;;10.87;7.30;;;14.10;99.90;;;;;;4146897;28;20207;-77
2021/08/29 01:00:40;;;;;;;10.80;7.63;;;14.20;99.90;;;;;;4144166;28;20732;-76
2021/08/29 01:02:44;;;;;;;11.90;7.87;;;14.20;99.90;;;;;;4145852;28;20299;-76
2021/08/29 01:04:53;;;;;;;14.60;7.87;;;14.20;99.90;;;;;;4146823;28;20269;-76
2021/08/29 01:07:00;;;;;;;11.70;8.03;;;14.20;99.90;;;;;;4147310;28;20261;-76
2021/08/29 01:09:06;;;;;;;11.60;7.90;;;14.20;99.90;;;;;;4132214;28;20239;-76
2021/08/29 01:11:13;;;;;;;12.57;8.70;;;14.20;99.90;;;;;;4129021;28;20277;-76
2021/08/29 01:13:31;;;;;;;12.53;8.50;;;14.20;99.90;;;;;;4136164;28;20306;-76
2021/08/29 01:15:33;;;;;;;13.20;8.67;;;14.20;99.90;;;;;;4144421;28;20277;-76
2021/08/29 01:17:37;;;;;;;12.73;8.63;;;14.20;99.90;;;;;;4146307;28;20224;-76
2021/08/29 01:19:46;;;;;;;12.43;8.33;;;14.30;99.90;;;;;;4146880;28;20258;-76
2021/08/29 01:21:50;;;;;;;12.53;8.53;;;14.20;99.90;;;;;;4142291;28;20702;-76
2021/08/29 01:23:55;;;;;;;13.53;9.30;;;14.20;99.90;;;;;;4147388;28;20705;-76
2021/08/29 01:26:02;;;;;;;14.47;9.07;;;14.30;99.90;;;;;;4130978;28;20212;-76
2021/08/29 01:28:12;;;;;;;15.73;9.10;;;14.30;99.90;;;;;;4140936;28;20207;-76
2021/08/29 01:30:16;;;;;;;12.33;8.53;;;14.30;99.90;;;;;;4144477;28;20211;-76
2021/08/29 01:32:19;;;;;;;13.13;8.93;;;14.30;99.90;;;;;;4145887;28;20282;-76
2021/08/29 01:34:21;;;;;;;13.00;8.80;;;14.30;99.90;;;;;;4146746;28;20251;-77
2021/08/29 01:36:24;;;;;;;12.30;8.20;;;14.40;99.90;;;;;;4146415;28;20258;-77
2021/08/29 01:38:26;;;;;;;14.43;9.23;;;14.40;99.90;;;;;;4147118;28;20204;-77
2021/08/29 01:40:28;;;;;;;15.53;9.33;;;14.30;99.90;;;;;;4134522;28;20278;-76
2021/08/29 01:42:30;;;;;;;14.23;9.03;;;14.40;99.90;;;;;;4136322;28;20322;-76
2021/08/29 01:44:32;;;;;;;13.20;9.03;;;14.40;99.90;;;;;;4142388;28;20578;-77
2021/08/29 01:46:36;;;;;;;15.47;9.50;;;14.40;99.90;;;;;;4146468;28;20215;-77
2021/08/29 01:48:39;;;;;;;13.37;8.53;;;14.40;99.90;;;;;;4146122;28;20254;-76
2021/08/29 01:50:42;;;;;;;15.00;9.60;;;14.40;99.90;;;;;;4146463;28;20290;-77
2021/08/29 01:52:44;;;;;;;14.47;9.17;;;14.40;99.90;;;;;;4146055;28;20626;-77
2021/08/29 01:54:46;;;;;;;15.90;9.67;;;14.50;99.90;;;;;;4142716;28;20220;-77
2021/08/29 01:56:58;;;;;;;16.47;10.07;;;14.40;99.90;;;;;;4147112;28;20270;-77
2021/08/29 01:59:00;;;;;;;14.00;9.13;;;14.40;99.90;;;;;;4143958;28;20210;-76
2021/08/29 02:01:06;;;;;;;14.67;10.07;;;14.50;99.90;;;;;;4146833;28;20228;-77
2021/08/29 02:03:09;;;;;;;14.33;9.50;;;14.50;99.90;;;;;;4131086;28;20212;-76
2021/08/29 02:05:11;;;;;;;15.83;10.67;;;14.50;99.90;;;;;;4129779;28;20752;-76
2021/08/29 02:07:24;;;;;;;15.63;10.13;;;14.50;99.90;;;;;;4130760;28;20716;-76
2021/08/29 02:09:28;;;;;;;16.33;10.50;;;14.50;99.90;;;;;;4145834;28;20675;-77
2021/08/29 02:11:34;;;;;;;16.80;10.23;;;14.50;99.90;;;;;;4145277;28;20224;-76
2021/08/29 02:13:38;;;;;;;17.93;10.73;;;14.50;99.90;;;;;;4140954;28;20431;-76
2021/08/29 02:15:45;;;;;;;15.17;9.87;;;14.50;99.90;;;;;;4130410;28;20586;-76
2021/08/29 02:17:49;;;;;;;15.20;10.03;;;14.60;99.90;;;;;;4129500;28;20237;-77
2021/08/29 02:19:55;;;;;;;14.63;9.47;;;14.60;99.90;;;;;;4143285;28;20560;-77
2021/08/29 02:21:57;;;;;;;15.43;9.57;;;14.60;99.90;;;;;;4145578;28;20240;-77
2021/08/29 02:24:01;;;;;;;15.60;10.07;;;14.60;99.90;;;;;;4142548;28;20659;-77
2021/08/29 02:26:03;;;;;;;15.97;10.37;;;14.60;99.90;;;;;;4148858;28;20231;-76
2021/08/29 02:28:07;;;;;;;15.93;10.23;;;14.60;99.90;;;;;;4148634;28;20679;-77
2021/08/29 02:30:10;;;;;;;16.60;9.57;;;14.60;99.90;;;;;;4148471;28;20722;-77
2021/08/29 02:32:13;;;;;;;15.93;10.57;;;14.60;99.90;;;;;;4144269;28;20247;-77
2021/08/29 02:34:14;;;;;;;15.53;10.07;;;14.60;99.90;;;;;;4149591;28;20310;-77
2021/08/29 02:36:18;;;;;;;14.23;9.83;;;14.60;99.90;;;;;;4149081;28;20211;-76
2021/08/29 02:38:21;;;;;;;14.87;10.03;;;14.60;99.90;;;;;;4149746;28;20235;-77
2021/08/29 02:40:22;;;;;;;14.87;10.33;;;14.70;99.90;;;;;;4147884;28;20626;-76
2021/08/29 02:42:26;;;;;;;14.80;10.40;;;14.70;99.90;;;;;;4133550;28;20212;-77
2021/08/29 02:44:29;;;;;;;16.07;10.03;;;14.70;99.90;;;;;;4131255;28;20216;-77
2021/08/29 02:46:31;;;;;;;15.70;9.97;;;14.70;99.90;;;;;;4133112;28;20200;-77
2021/08/29 02:48:34;;;;;;;16.33;10.63;;;14.70;99.90;;;;;;4137114;28;20204;-77
2021/08/29 02:50:36;;;;;;;16.17;9.77;;;14.70;99.90;;;;;;4148337;28;20242;-77
2021/08/29 02:52:40;;;;;;;15.37;9.90;;;14.70;99.90;;;;;;4148376;28;20279;-77
2021/08/29 02:54:42;;;;;;;16.83;10.83;;;14.70;99.90;;;;;;4148424;28;20222;-77
2021/08/29 02:56:47;;;;;;;14.73;9.77;;;14.70;99.90;;;;;;4148806;28;20212;-76
2021/08/29 02:58:50;;;;;;;16.27;9.87;;;14.70;99.90;;;;;;4149246;28;20213;-77
2021/08/29 03:00:52;;;;;;;16.50;10.93;;;14.70;99.90;;;;;;4149114;28;20231;-76
2021/08/29 03:02:54;;;;;;;17.43;10.73;;;14.70;99.90;;;;;;4140680;28;20660;-77
2021/08/29 03:04:56;;;;;;;15.30;10.43;;;14.70;99.90;;;;;;4148450;28;20220;-77
2021/08/29 03:06:58;;;;;;;18.23;10.50;;;14.70;99.90;;;;;;4148959;28;20211;-76
2021/08/29 03:09:02;;;;;;;18.13;10.90;;;14.70;99.90;;;;;;4148015;28;20262;-76
2021/08/29 03:11:06;;;;;;;16.27;11.00;;;14.70;99.90;;;;;;4148290;28;20240;-76
2021/08/29 03:13:10;;;;;;;16.20;10.90;;;14.70;99.90;;;;;;4136332;28;20216;-76
2021/08/29 03:15:13;;;;;;;16.60;10.37;;;14.70;99.90;;;;;;4132611;28;20291;-76
2021/08/29 03:17:15;;;;;;;15.20;10.17;;;14.70;99.90;;;;;;4132603;28;20255;-76
2021/08/29 03:19:17;;;;;;;14.93;10.57;;;14.70;99.90;;;;;;4147223;28;20216;-77
2021/08/29 03:21:19;;;;;;;20.03;11.13;;;14.70;99.90;;;;;;4148215;28;20228;-76
2021/08/29 03:23:21;;;;;;;17.37;11.60;;;14.70;99.90;;;;;;4135638;28;20215;-77
2021/08/29 03:25:24;;;;;;;15.10;9.93;;;14.70;99.90;;;;;;4134962;28;20254;-77
2021/08/29 03:27:27;;;;;;;16.60;11.30;;;14.70;99.90;;;;;;4148618;28;20213;-76
2021/08/29 03:29:28;;;;;;;15.93;11.00;;;14.70;99.90;;;;;;4147895;28;20340;-76
2021/08/29 03:31:31;;;;;;;17.70;11.13;;;14.70;99.90;;;;;;4147394;28;20235;-75
2021/08/29 03:33:34;;;;;;;16.13;10.63;;;14.70;99.90;;;;;;4143757;28;20211;-76
2021/08/29 03:35:36;;;;;;;16.30;10.60;;;14.70;99.90;;;;;;4148293;28;20586;-76
2021/08/29 03:37:40;;;;;;;17.60;11.70;;;14.70;99.90;;;;;;4147085;28;20234;-76
2021/08/29 03:39:45;;;;;;;15.43;10.77;;;14.70;99.90;;;;;;4145105;28;20671;-76
2021/08/29 03:41:49;;;;;;;18.30;10.63;;;14.70;99.90;;;;;;4144945;28;20683;-76
2021/08/29 03:43:51;;;;;;;16.30;10.53;;;14.70;99.90;;;;;;4144706;28;20216;-76
2021/08/29 03:45:53;;;;;;;18.07;10.57;;;14.70;99.90;;;;;;4144821;28;20266;-75
2021/08/29 03:47:56;;;;;;;17.70;11.63;;;14.80;99.90;;;;;;4147675;28;20701;-77
2021/08/29 03:49:58;;;;;;;16.67;10.77;;;14.80;99.90;;;;;;4147931;28;20217;-76
2021/08/29 03:52:01;;;;;;;15.63;10.60;;;14.80;99.90;;;;;;4141132;28;20245;-76
2021/08/29 03:54:03;;;;;;;17.97;10.80;;;14.80;99.90;;;;;;4131472;28;20583;-75
2021/08/29 03:56:07;;;;;;;22.10;10.73;;;14.80;99.90;;;;;;4138491;28;20223;-77
2021/08/29 03:58:11;;;;;;;16.77;10.73;;;14.80;99.90;;;;;;4146927;28;20232;-78
2021/08/29 04:00:13;;;;;;;19.53;11.90;;;14.80;99.90;;;;;;4141947;28;20225;-75
2021/08/29 04:02:15;;;;;;;18.13;10.77;;;14.70;99.90;;;;;;4146919;28;20204;-76
2021/08/29 04:04:17;;;;;;;18.43;11.90;;;14.70;99.90;;;;;;4146715;28;20211;-76
2021/08/29 04:06:19;;;;;;;16.87;10.80;;;14.70;99.90;;;;;;4148427;28;20743;-75
2021/08/29 04:08:28;;;;;;;15.83;10.77;;;14.70;99.90;;;;;;4147320;28;20731;-75
2021/08/29 04:10:31;;;;;;;17.20;10.87;;;14.70;99.90;;;;;;4140545;28;20233;-75
2021/08/29 04:12:34;;;;;;;16.80;10.73;;;14.70;99.90;;;;;;4148191;28;20213;-75
2021/08/29 04:14:37;;;;;;;18.07;10.80;;;14.70;99.90;;;;;;4136334;28;20284;-76
2021/08/29 04:16:40;;;;;;;18.27;11.33;;;14.70;99.90;;;;;;4144263;28;20211;-76
2021/08/29 04:18:42;;;;;;;21.83;11.40;;;14.70;99.90;;;;;;4145761;28;20738;-74
2021/08/29 04:20:45;;;;;;;19.67;12.03;;;14.70;99.90;;;;;;4147578;28;20264;-74
2021/08/29 04:22:47;;;;;;;18.60;11.47;;;14.70;99.90;;;;;;4133082;28;20217;-76
2021/08/29 04:24:49;;;;;;;18.33;11.53;;;14.70;99.90;;;;;;4130654;28;20221;-75
2021/08/29 04:26:52;;;;;;;19.63;11.13;;;14.70;99.90;;;;;;4142868;28;20209;-75
2021/08/29 04:28:54;;;;;;;18.87;11.50;;;14.70;99.90;;;;;;4146242;28;20206;-75
2021/08/29 04:31:01;;;;;;;18.80;11.70;;;14.70;99.90;;;;;;4139494;28;20233;-75
2021/08/29 04:33:02;;;;;;;16.60;11.30;;;14.60;99.90;;;;;;4131716;28;20212;-76
2021/08/29 04:35:06;;;;;;;19.60;10.80;;;14.60;99.90;;;;;;4146271;28;20216;-75
2021/08/29 04:37:08;;;;;;;19.47;11.60;;;14.60;99.90;;;;;;4147649;28;20212;-75
2021/08/29 04:39:10;;;;;;;17.53;10.80;;;14.60;99.90;;;;;;4146568;28;20298;-75
2021/08/29 04:41:12;;;;;;;21.73;12.27;;;14.60;99.90;;;;;;4144781;28;20710;-75
2021/08/29 04:43:14;;;;;;;21.07;11.73;;;14.50;99.90;;;;;;4147381;28;20267;-75
2021/08/29 04:45:15;;;;;;;19.30;11.53;;;14.50;99.90;;;;;;4131669;28;20220;-75
2021/08/29 04:47:18;;;;;;;16.57;9.87;;;14.50;99.90;;;;;;4147580;28;20211;-75
2021/08/29 04:49:20;;;;;;;17.13;10.00;;;14.50;99.90;;;;;;4146922;28;20212;-75
2021/08/29 04:51:22;;;;;;;13.23;7.63;;;14.40;99.90;;;;;;4147266;28;20301;-76
2021/08/29 04:53:23;;;;;;;12.50;7.50;;;14.30;99.90;;;;;;4144701;28;20290;-75
2021/08/29 04:55:25;;;;;;;14.30;7.07;;;14.30;99.90;;;;;;4147217;28;20215;-74
2021/08/29 04:57:27;;;;;;;10.90;6.67;;;14.30;99.90;;;;;;4147348;28;20216;-75
2021/08/29 04:59:28;;;;;;;12.17;7.17;;;14.20;99.90;;;;;;4146862;28;20219;-75
2021/08/29 05:01:31;;;;;;;13.17;6.63;;;14.10;99.90;;;;;;4142764;28;20236;-75
2021/08/29 05:03:35;;;;;;;13.30;6.67;;;14.10;99.90;;;;;;4147867;28;20215;-74
2021/08/29 05:05:37;;;;;;;11.23;6.93;;;14.10;99.90;;;;;;4146639;28;20654;-74
2021/08/29 05:07:39;;;;;;;11.70;6.60;;;14.10;99.90;;;;;;4146134;28;20667;-75
2021/08/29 05:09:40;;;;;;;9.73;6.47;;;14.00;99.90;;;;;;4145952;28;20673;-75
2021/08/29 05:11:42;;;;;;;9.77;6.13;;;14.00;99.90;;;;;;4140986;28;20247;-76
2021/08/29 05:13:44;;;;;;;11.30;6.10;;;14.00;99.90;;;;;;4142252;28;20659;-75
2021/08/29 05:15:46;;;;;;;10.40;6.30;;;14.00;99.90;;;;;;4143033;28;20238;-76
2021/08/29 05:17:47;;;;;;;8.23;5.23;;;14.00;99.90;;;;;;4146027;28;20216;-75
2021/08/29 05:19:50;;;;;;;8.03;5.07;;;14.00;99.90;;;;;;4138338;28;20220;-76
2021/08/29 05:21:52;;;;;;;8.03;4.40;;;14.00;99.90;;;;;;4130533;28;20242;-75
2021/08/29 05:23:54;;;;;;;6.37;4.50;;;14.00;99.90;;;;;;4131084;28;20266;-76
2021/08/29 05:25:55;;;;;;;7.20;5.00;;;14.00;99.90;;;;;;4133459;28;20258;-76
2021/08/29 05:27:58;;;;;;;7.87;4.63;;;14.00;99.90;;;;;;4146786;28;20258;-76
2021/08/29 05:29:59;;;;;;;6.83;4.77;;;14.00;99.90;;;;;;4146857;28;20222;-76
2021/08/29 05:32:01;;;;;;;7.00;4.77;;;14.00;99.90;;;;;;4141890;28;20238;-76
2021/08/29 05:34:03;;;;;;;7.73;5.10;;;14.00;99.90;;;;;;4133862;28;20536;-75
2021/08/29 05:36:06;;;;;;;8.10;5.07;;;14.00;99.90;;;;;;4142673;28;20216;-76
2021/08/29 05:38:07;;;;;;;8.17;5.40;;;14.10;99.90;;;;;;4146803;28;20228;-76
2021/08/29 05:40:10;;;;;;;11.47;6.67;;;14.10;99.90;;;;;;4146303;28;20247;-77
2021/08/29 05:42:12;;;;;;;10.40;5.90;;;14.10;99.90;;;;;;4146311;28;20219;-76
2021/08/29 05:44:14;;;;;;;7.50;5.00;;;14.10;99.90;;;;;;4138839;28;20247;-76
2021/08/29 05:46:15;;;;;;;7.57;4.30;;;14.10;99.90;;;;;;4130628;28;20215;-76
2021/08/29 05:48:17;;;;;;;6.47;4.10;;;14.00;99.90;;;;;;4129734;28;20667;-77
2021/08/29 05:50:19;;;;;;;6.17;4.10;;;14.00;99.90;;;;;;4130089;28;20650;-76
2021/08/29 05:52:22;;;;;;;8.67;4.53;;;14.00;99.90;;;;;;4134843;28;20559;-76
2021/08/29 05:54:24;;;;;;;6.87;3.67;;;14.00;99.90;;;;;;4146875;28;20208;-77
2021/08/29 05:56:25;;;;;;;4.77;3.53;;;14.00;99.90;;;;;;4145696;28;20216;-77
2021/08/29 05:58:27;;;;;;;4.90;3.40;;;14.00;99.90;;;;;;4148832;28;20232;-75
2021/08/29 06:00:29;;;;;;;5.03;3.57;;;14.00;99.90;;;;;;4149015;28;20286;-76
2021/08/29 06:02:31;;;;;;;5.20;3.53;;;14.00;99.90;;;;;;4148815;28;20211;-76
2021/08/29 06:04:32;;;;;;;4.40;3.27;;;14.10;99.90;;;;;;4149946;28;20343;-76
2021/08/29 06:06:34;;;;;;;4.70;3.37;;;14.10;99.90;;;;;;4149556;28;20214;-75
2021/08/29 06:08:37;;;;;;;5.50;3.47;;;14.10;99.90;;;;;;4143761;28;20204;-75
2021/08/29 06:10:39;;;;;;;4.20;2.97;;;14.10;99.90;;;;;;4149728;28;20228;-76
2021/08/29 06:12:40;;;;;;;6.53;3.40;;;14.00;99.90;;;;;;4148583;28;20283;-75
2021/08/29 06:14:42;;;;;;;4.73;3.33;;;14.00;99.90;;;;;;4144369;28;20278;-76
2021/08/29 06:16:44;;;;;;;3.97;3.07;;;14.00;99.90;;;;;;4149844;28;20207;-75
2021/08/29 06:18:46;;;;;;;5.97;3.47;;;14.00;99.90;;;;;;4149473;28;20278;-76
2021/08/29 06:20:47;;;;;;;3.93;2.93;;;14.10;99.90;;;;;;4148686;28;20934;-76
2021/08/29 06:22:49;;;;;;;3.63;2.70;;;14.10;99.90;;;;;;4147573;28;20263;-75
2021/08/29 06:24:52;;;;;;;4.67;3.37;;;14.10;99.90;;;;;;4148015;28;20290;-75
2021/08/29 06:26:54;;;;;;;6.03;4.10;;;14.10;99.90;;;;;;4150063;28;20254;-75
2021/08/29 06:28:55;;;;;;;4.90;3.30;;;14.20;99.90;;;;;;4148226;28;20215;-74
2021/08/29 06:30:57;;;;;;;5.33;3.60;;;14.20;99.90;;;;;;4149498;28;20327;-75
2021/08/29 06:32:59;;;;;;;4.63;3.00;;;14.20;99.90;;;;;;4146853;28;20215;-76
2021/08/29 06:35:00;;;;;;;4.80;3.60;;;14.20;99.90;;;;;;4149220;28;20263;-74
2021/08/29 06:37:02;;;;;;;4.47;3.20;;;14.30;99.90;;;;;;4148981;28;20208;-75
2021/08/29 06:39:04;;;;;;;7.23;3.73;;;14.30;99.90;;;;;;4147569;28;20240;-75
2021/08/29 06:41:07;;;;;;;5.23;3.87;;;14.30;99.90;;;;;;4146981;28;20232;-75
2021/08/29 06:43:09;;;;;;;7.00;3.70;;;14.30;99.90;;;;;;4132747;28;20298;-77
2021/08/29 06:45:12;;;;;;;7.40;4.90;;;14.40;99.90;;;;;;4148896;28;20269;-75
2021/08/29 06:47:13;;;;;;;5.87;4.07;;;14.40;99.90;;;;;;4149203;28;20207;-75
2021/08/29 06:49:15;;;;;;;5.87;4.07;;;14.40;99.90;;;;;;4148390;28;20201;-76
2021/08/29 06:51:17;;;;;;;6.57;4.13;;;14.50;99.90;;;;;;4144254;28;20675;-75
2021/08/29 06:53:18;;;;;;;5.40;3.90;;;14.50;99.90;;;;;;4141168;28;20212;-76
2021/08/29 06:55:20;;;;;;;5.40;3.83;;;14.50;99.90;;;;;;4149085;28;20214;-75
2021/08/29 06:57:25;;;;;;;6.87;3.70;;;14.60;99.90;;;;;;4148328;28;20219;-74
2021/08/29 06:59:27;;;;;;;6.00;4.23;;;14.60;99.90;;;;;;4144860;28;20229;-74
2021/08/29 07:01:29;;;;;;;6.17;4.03;;;14.60;99.90;;;;;;4146551;28;20228;-75
2021/08/29 07:03:30;;;;;;;5.57;4.17;;;14.60;99.90;;;;;;4148493;28;20213;-75
2021/08/29 07:05:32;;;;;;;6.70;4.73;;;14.70;99.90;;;;;;4148976;28;20212;-75
2021/08/29 07:07:34;;;;;;;7.53;4.93;;;14.70;99.90;;;;;;4145775;28;20676;-76
2021/08/29 07:09:38;;;;;;;7.53;4.97;;;14.80;99.90;;;;;;4131170;28;20273;-77
2021/08/29 07:11:40;;;;;;;7.87;5.20;;;14.80;99.90;;;;;;4132388;28;20285;-76
2021/08/29 07:13:43;;;;;;;8.87;5.93;;;14.80;99.90;;;;;;4145048;28;20269;-74
2021/08/29 07:15:44;;;;;;;9.33;6.33;;;14.90;99.90;;;;;;4135920;28;20209;-76
2021/08/29 07:17:46;;;;;;;9.80;6.73;;;15.00;99.90;;;;;;4146851;28;20218;-75
2021/08/29 07:19:48;;;;;;;10.87;7.40;;;14.90;99.90;;;;;;4148494;28;20538;-75
2021/08/29 07:21:50;;;;;;;12.20;7.50;;;15.00;99.90;;;;;;4148364;28;20242;-76
2021/08/29 07:23:52;;;;;;;12.77;8.43;;;15.00;99.90;;;;;;4137998;28;20206;-77
2021/08/29 07:25:53;;;;;;;10.80;7.53;;;15.10;99.90;;;;;;4148866;28;20221;-76
2021/08/29 07:27:55;;;;;;;12.30;8.10;;;15.10;99.90;;;;;;4148674;28;20271;-75
2021/08/29 07:29:58;;;;;;;10.90;7.70;;;15.10;99.90;;;;;;4148023;28;20226;-75
2021/08/29 07:32:00;;;;;;;10.87;7.93;;;15.20;99.90;;;;;;4142240;28;20258;-79
2021/08/29 07:34:02;;;;;;;13.97;8.03;;;15.20;99.90;;;;;;4146917;28;20220;-76
2021/08/29 07:36:04;;;;;;;12.13;8.30;;;15.30;99.90;;;;;;4148579;28;20211;-75
2021/08/29 07:38:06;;;;;;;13.03;8.80;;;15.30;99.90;;;;;;4147939;28;20283;-75
2021/08/29 07:40:09;;;;;;;14.60;8.80;;;15.30;99.90;;;;;;4145371;28;20229;-77
2021/08/29 07:42:11;;;;;;;13.33;8.37;;;15.30;99.90;;;;;;4137509;28;20637;-76
2021/08/29 07:44:13;;;;;;;11.30;8.00;;;15.30;99.90;;;;;;4148551;28;20215;-77
2021/08/29 07:46:16;;;;;;;16.80;10.07;;;15.30;99.90;;;;;;4148592;28;20599;-78
2021/08/29 07:48:17;;;;;;;18.50;11.23;;;15.40;99.90;;;;;;4147141;28;20667;-78
2021/08/29 07:50:19;;;;;;;15.07;9.37;;;15.40;99.90;;;;;;4146327;28;20286;-78
2021/08/29 07:52:21;;;;;;;14.27;8.57;;;15.40;99.90;;;;;;4148576;28;20215;-76
2021/08/29 07:54:23;;;;;;;14.60;9.17;;;15.50;99.90;;;;;;4148062;28;20290;-76
2021/08/29 07:56:24;;;;;;;13.40;8.47;;;15.50;99.90;;;;;;4148200;28;20207;-79
2021/08/29 07:58:26;;;;;;;12.77;8.70;;;15.50;99.90;;;;;;4143979;28;20215;-79
2021/08/29 08:00:28;;;;;;;14.90;8.63;;;15.60;99.90;;;;;;4133142;28;20234;-78
2021/08/29 08:02:31;;;;;;;12.50;8.80;;;15.60;99.90;;;;;;4148179;28;20215;-79
2021/08/29 08:04:33;;;;;;;13.10;8.97;;;15.60;99.90;;;;;;4148153;28;20211;-79
2021/08/29 08:06:34;;;;;;;12.73;8.70;;;15.60;99.90;;;;;;4145014;28;20250;-76
2021/08/29 08:08:36;;;;;;;12.77;8.53;;;15.60;99.90;;;;;;4146539;28;20666;-76
2021/08/29 08:10:38;;;;;;;12.77;8.83;;;15.60;99.90;;;;;;4147296;28;20271;-76
2021/08/29 08:12:39;;;;;;;14.30;8.90;;;15.60;99.90;;;;;;4148025;28;20622;-76
2021/08/29 08:14:41;;;;;;;14.10;9.50;;;15.60;99.90;;;;;;4142334;28;20733;-76
2021/08/29 08:16:43;;;;;;;13.30;9.13;;;15.70;99.90;;;;;;4148072;28;20215;-76
2021/08/29 08:18:46;;;;;;;16.37;9.70;;;15.70;99.90;;;;;;4147435;28;20250;-78
2021/08/29 08:20:47;;;;;;;14.47;9.87;;;15.70;99.90;;;;;;4146208;28;20250;-75
2021/08/29 08:22:49;;;;;;;17.03;10.23;;;15.70;99.90;;;;;;4141802;28;20218;-76
2021/08/29 08:24:51;;;;;;;15.20;9.97;;;15.70;99.90;;;;;;4146923;28;20292;-78
2021/08/29 08:26:52;;;;;;;14.83;9.83;;;15.70;99.90;;;;;;4146719;28;20211;-76
2021/08/29 08:28:54;;;;;;;14.67;9.93;;;15.80;99.90;;;;;;4139674;28;20262;-78
2021/08/29 08:30:55;;;;;;;12.63;8.73;;;15.80;99.90;;;;;;4144359;28;20308;-78
2021/08/29 08:32:57;;;;;;;13.73;9.60;;;15.90;99.90;;;;;;4147645;28;20204;-76
2021/08/29 08:35:00;;;;;;;13.43;9.60;;;15.90;99.90;;;;;;4147198;28;20575;-76
2021/08/29 08:37:02;;;;;;;15.53;10.30;;;15.90;99.90;;;;;;4147275;28;20216;-78
2021/08/29 08:39:04;;;;;;;14.67;9.80;;;15.90;99.90;;;;;;4146660;28;20214;-76
2021/08/29 08:41:06;;;;;;;14.27;9.13;;;15.90;99.90;;;;;;4142345;28;20259;-76
2021/08/29 08:43:08;;;;;;;15.03;8.60;;;15.90;99.90;;;;;;4147824;28;20258;-75
2021/08/29 08:45:10;;;;;;;10.33;7.83;;;16.00;99.90;;;;;;4146756;28;20286;-76
2021/08/29 08:47:17;;;;;;;12.47;8.80;;;16.00;99.90;;;;;;4147033;28;20266;-76
2021/08/29 08:49:22;;;;;;;13.33;8.10;;;16.00;99.90;;;;;;4146553;28;20273;-76
2021/08/29 08:51:28;;;;;;;11.80;8.10;;;16.00;99.90;;;;;;4135425;28;20882;-76
2021/08/29 08:53:33;;;;;;;14.30;8.47;;;16.00;99.90;;;;;;4147312;28;20211;-76
2021/08/29 08:55:36;;;;;;;12.17;8.10;;;16.10;99.90;;;;;;4145224;28;20212;-75
2021/08/29 08:57:40;;;;;;;11.63;7.87;;;16.10;99.90;;;;;;4147541;28;20212;-76
2021/08/29 08:59:43;;;;;;;11.07;7.90;;;16.10;99.90;;;;;;4142783;28;20244;-76
2021/08/29 09:01:45;;;;;;;9.47;7.23;;;16.20;99.90;;;;;;4147598;28;20239;-76
2021/08/29 09:03:48;;;;;;;12.07;8.33;;;16.20;99.90;;;;;;4147816;28;20468;-76
2021/08/29 09:05:49;;;;;;;11.80;8.53;;;16.20;99.90;;;;;;4146654;28;20208;-78
2021/08/29 09:07:52;;;;;;;10.87;7.73;;;16.30;99.90;;;;;;4143423;28;20212;-76
2021/08/29 09:09:54;;;;;;;12.87;8.73;;;16.20;99.90;;;;;;4146973;28;20265;-76
2021/08/29 09:11:56;;;;;;;15.43;9.40;;;16.20;99.90;;;;;;4146974;28;20235;-76
2021/08/29 09:13:58;;;;;;;13.77;8.70;;;16.30;99.90;;;;;;4142948;28;20204;-75
2021/08/29 09:16:13;;;;;;;10.80;7.50;;;16.20;99.90;;;;;;4147510;28;20626;-75
2021/08/29 09:18:15;;;;;;;10.73;7.90;;;16.30;99.90;;;;;;4147566;28;20219;-75
2021/08/29 09:20:20;;;;;;;10.13;7.30;;;16.30;99.90;;;;;;4145371;28;20572;-75
2021/08/29 09:22:26;;;;;;;9.37;6.57;;;16.30;99.90;;;;;;4146206;28;20208;-75
2021/08/29 09:24:31;;;;;;;8.50;6.10;;;16.30;99.90;;;;;;4147177;28;20212;-77
2021/08/29 09:26:33;;;;;;;8.90;6.00;;;16.30;99.90;;;;;;4147745;28;20207;-79
2021/08/29 09:28:35;;;;;;;8.23;5.93;;;16.30;99.90;;;;;;4148603;28;20591;-73
2021/08/29 09:30:40;;;;;;;7.73;5.77;;;16.30;99.90;;;;;;4145230;28;20633;-74
2021/08/29 09:32:54;;;;;;;8.27;5.90;;;16.30;99.90;;;;;;4149802;28;20293;-74
2021/08/29 09:34:58;;;;;;;8.90;6.47;;;16.20;99.90;;;;;;4149828;28;20208;-73
2021/08/29 09:37:01;;;;;;;8.17;5.80;;;16.20;99.90;;;;;;4149906;28;20220;-77
2021/08/29 09:39:13;;;;;;;9.10;6.43;;;16.20;99.90;;;;;;4149621;28;20781;-76
2021/08/29 09:41:25;;;;;;;11.23;7.60;;;16.20;99.90;;;;;;4143301;28;20223;-76
2021/08/29 09:43:36;;;;;;;10.00;7.47;;;16.20;99.90;;;;;;4150580;28;20208;-76
2021/08/29 09:45:40;;;;;;;9.70;7.67;;;16.20;99.90;;;;;;4150595;28;20342;-75
2021/08/29 09:47:44;;;;;;;11.10;8.07;;;16.20;99.90;;;;;;4150296;28;20624;-76
2021/08/29 09:49:51;;;;;;;11.97;8.20;;;16.20;99.90;;;;;;4143907;28;20236;-74
2021/08/29 09:52:06;;;;;;;;;;;;;;;;;;;;;
2021/08/29 09:54:08;;;;;;;10.53;8.00;;;16.40;99.90;;;;;;4166023;28;20614;-83
2021/08/29 09:57:02;;;;;;;;;;;;;;;;;;;;;
2021/08/29 09:59:04;;;;;;;11.53;8.40;;;16.10;99.90;;;;;;4167518;28;20487;-84
2021/08/29 10:01:11;;;;;;;10.83;8.77;;;16.10;99.90;;;;;;4168242;28;20226;-84
2021/08/29 10:03:13;;;;;;;13.10;9.10;;;16.10;99.90;;;;;;4176782;28;20220;-83
2021/08/29 10:05:17;;;;;;;12.87;9.93;;;16.10;99.90;;;;;;4172236;28;20238;-83
2021/08/29 10:07:20;;;;;;;19.13;12.33;;;16.20;99.90;;;;;;4171153;28;20207;-84
2021/08/29 10:09:26;;;;;;;16.60;10.40;;;16.10;99.90;;;;;;4154255;28;20675;-84
2021/08/29 10:11:29;;;;;;;14.00;9.87;;;16.10;99.90;;;;;;4151991;28;20267;-84
2021/08/29 10:13:32;;;;;;;14.37;9.73;;;16.10;99.90;;;;;;4159129;28;20215;-84
2021/08/29 10:15:38;;;;;;;12.93;10.00;;;16.00;99.90;;;;;;4184009;28;20198;-83
2021/08/29 10:17:41;;;;;;;12.20;9.53;;;16.00;99.90;;;;;;4186504;28;20222;-83
2021/08/29 10:19:44;;;;;;;12.20;10.07;;;16.00;99.90;;;;;;4171302;28;20244;-83
2021/08/29 10:21:46;;;;;;;13.30;10.40;;;16.00;99.90;;;;;;4169225;28;20234;-82
2021/08/29 10:23:50;;;;;;;13.47;10.47;;;15.90;99.90;;;;;;4171960;28;20237;-82
2021/08/29 10:25:54;;;;;;;12.90;10.17;;;15.80;99.90;;;;;;4173730;28;20213;-83
2021/08/29 10:28:04;;;;;;;12.40;10.17;;;15.80;99.90;;;;;;4171099;28;20277;-83
2021/08/29 10:30:12;;;;;;;13.93;10.90;;;15.70;99.90;;;;;;4167530;28;20219;-83
2021/08/29 10:32:22;;;;;;;14.87;11.17;;;15.80;99.90;;;;;;4161020;28;20270;-83
2021/08/29 10:34:23;;;;;;;13.67;10.87;;;15.80;99.90;;;;;;4173928;28;20257;-84